Aviation Digital Data Service (ADDS)

Output produced by METARs form (0841 UTC 24 March 2019)
found at http://www.aviationweather.gov/metar/data/
 
METAR text: EVRA 240820Z 30009KT 250V350 CAVOK 06/M01 Q1016 R36/190095 NOSIG
Conditions at: EVRA (RIGA AIRPORT , LV) observed 0820 UTC 24 March 2019
Temperature: 6.0°C (43°F)
Dewpoint: -1.0°C (30°F) [RH = 61%]
Pressure (altimeter): 30.00 inches Hg (1016.0 mb)
Winds: from the WNW (300 degrees) at 10 MPH (9 knots; 4.6 m/s)
Visibility: 6 or more miles (10+ km)
Ceiling: ceiling and visibility are OK
Clouds: unknown
Weather: no significant weather observed at this time

METAR text: EVRA 240750Z 30008KT 230V340 CAVOK 05/M01 Q1016 R36/190095 NOSIG
Conditions at: EVRA (RIGA AIRPORT , LV) observed 0750 UTC 24 March 2019
Temperature: 5.0°C (41°F)
Dewpoint: -1.0°C (30°F) [RH = 65%]
Pressure (altimeter): 30.00 inches Hg (1016.0 mb)
Winds: from the WNW (300 degrees) at 9 MPH (8 knots; 4.1 m/s)
Visibility: 6 or more miles (10+ km)
Ceiling: ceiling and visibility are OK
Clouds: unknown
Weather: no significant weather observed at this time

METAR text: EVRA 240720Z 30008KT 240V340 CAVOK 05/M01 Q1016 R18/190095 NOSIG
Conditions at: EVRA (RIGA AIRPORT , LV) observed 0720 UTC 24 March 2019
Temperature: 5.0°C (41°F)
Dewpoint: -1.0°C (30°F) [RH = 65%]
Pressure (altimeter): 30.00 inches Hg (1016.0 mb)
Winds: from the WNW (300 degrees) at 9 MPH (8 knots; 4.1 m/s)
Visibility: 6 or more miles (10+ km)
Ceiling: ceiling and visibility are OK
Clouds: unknown
Weather: no significant weather observed at this time

METAR text: EVRA 240650Z 28009KT 230V320 CAVOK 05/M00 Q1016 R18/190095 NOSIG
Conditions at: EVRA (RIGA AIRPORT , LV) observed 0650 UTC 24 March 2019
Temperature: 5.0°C (41°F)
Dewpoint: 0.0°C (32°F) [RH = 70%]
Pressure (altimeter): 30.00 inches Hg (1016.0 mb)
Winds: from the W (280 degrees) at 10 MPH (9 knots; 4.6 m/s)
Visibility: 6 or more miles (10+ km)
Ceiling: ceiling and visibility are OK
Clouds: unknown
Weather: no significant weather observed at this time

METAR text: EVRA 240620Z VRB06KT CAVOK 04/00 Q1016 R18/190095 NOSIG
Conditions at: EVRA (RIGA AIRPORT , LV) observed 0620 UTC 24 March 2019
Temperature: 4.0°C (39°F)
Dewpoint: 0.0°C (32°F) [RH = 75%]
Pressure (altimeter): 30.00 inches Hg (1016.0 mb)
Winds: variable direction winds at 7 MPH (6 knots; 3.1 m/s)
Visibility: 6 or more miles (10+ km)
Ceiling: ceiling and visibility are OK
Clouds: unknown
Weather: no significant weather observed at this time

METAR text: EVRA 240550Z 26006KT 210V330 CAVOK 03/M00 Q1016 R18/190095 NOSIG
Conditions at: EVRA (RIGA AIRPORT , LV) observed 0550 UTC 24 March 2019
Temperature: 3.0°C (37°F)
Dewpoint: 0.0°C (32°F) [RH = 81%]
Pressure (altimeter): 30.00 inches Hg (1016.0 mb)
Winds: from the W (260 degrees) at 7 MPH (6 knots; 3.1 m/s)
Visibility: 6 or more miles (10+ km)
Ceiling: ceiling and visibility are OK
Clouds: unknown
Weather: no significant weather observed at this time

METAR text: EVRA 240520Z 25005KT 210V300 CAVOK 02/M01 Q1016 R18/190095 NOSIG
Conditions at: EVRA (RIGA AIRPORT , LV) observed 0520 UTC 24 March 2019
Temperature: 2.0°C (36°F)
Dewpoint: -1.0°C (30°F) [RH = 80%]
Pressure (altimeter): 30.00 inches Hg (1016.0 mb)
Winds: from the WSW (250 degrees) at 6 MPH (5 knots; 2.6 m/s)
Visibility: 6 or more miles (10+ km)
Ceiling: ceiling and visibility are OK
Clouds: unknown
Weather: no significant weather observed at this time

METAR text: EVRA 240450Z 24005KT 200V270 CAVOK 02/M01 Q1016 R18/190095 NOSIG
Conditions at: EVRA (RIGA AIRPORT , LV) observed 0450 UTC 24 March 2019
Temperature: 2.0°C (36°F)
Dewpoint: -1.0°C (30°F) [RH = 80%]
Pressure (altimeter): 30.00 inches Hg (1016.0 mb)
Winds: from the WSW (240 degrees) at 6 MPH (5 knots; 2.6 m/s)
Visibility: 6 or more miles (10+ km)
Ceiling: ceiling and visibility are OK
Clouds: unknown
Weather: no significant weather observed at this time

METAR text: EVRA 240420Z 23004KT CAVOK 01/M01 Q1015 R18/190095 NOSIG
Conditions at: EVRA (RIGA AIRPORT , LV) observed 0420 UTC 24 March 2019
Temperature: 1.0°C (34°F)
Dewpoint: -1.0°C (30°F) [RH = 86%]
Pressure (altimeter): 29.97 inches Hg (1015.0 mb)
Winds: from the SW (230 degrees) at 5 MPH (4 knots; 2.1 m/s)
Visibility: 6 or more miles (10+ km)
Ceiling: ceiling and visibility are OK
Clouds: unknown
Weather: no significant weather observed at this time

METAR text: EVRA 240350Z 24005KT 180V280 CAVOK 02/M01 Q1015 R18/190095 NOSIG
Conditions at: EVRA (RIGA AIRPORT , LV) observed 0350 UTC 24 March 2019
Temperature: 2.0°C (36°F)
Dewpoint: -1.0°C (30°F) [RH = 80%]
Pressure (altimeter): 29.97 inches Hg (1015.0 mb)
Winds: from the WSW (240 degrees) at 6 MPH (5 knots; 2.6 m/s)
Visibility: 6 or more miles (10+ km)
Ceiling: ceiling and visibility are OK
Clouds: unknown
Weather: no significant weather observed at this time

METAR text: EVRA 240320Z 26004KT 210V290 CAVOK 02/M01 Q1015 R18/190095 NOSIG
Conditions at: EVRA (RIGA AIRPORT , LV) observed 0320 UTC 24 March 2019
Temperature: 2.0°C (36°F)
Dewpoint: -1.0°C (30°F) [RH = 80%]
Pressure (altimeter): 29.97 inches Hg (1015.0 mb)
Winds: from the W (260 degrees) at 5 MPH (4 knots; 2.1 m/s)
Visibility: 6 or more miles (10+ km)
Ceiling: ceiling and visibility are OK
Clouds: unknown
Weather: no significant weather observed at this time

METAR text: EVRA 240250Z 26005KT 190V310 CAVOK 02/M01 Q1015 R18/190095 NOSIG
Conditions at: EVRA (RIGA AIRPORT , LV) observed 0250 UTC 24 March 2019
Temperature: 2.0°C (36°F)
Dewpoint: -1.0°C (30°F) [RH = 80%]
Pressure (altimeter): 29.97 inches Hg (1015.0 mb)
Winds: from the W (260 degrees) at 6 MPH (5 knots; 2.6 m/s)
Visibility: 6 or more miles (10+ km)
Ceiling: ceiling and visibility are OK
Clouds: unknown
Weather: no significant weather observed at this time

METAR text: EVRA 240220Z 25004KT 200V290 CAVOK 02/M01 Q1015 R18/190095 NOSIG
Conditions at: EVRA (RIGA AIRPORT , LV) observed 0220 UTC 24 March 2019
Temperature: 2.0°C (36°F)
Dewpoint: -1.0°C (30°F) [RH = 80%]
Pressure (altimeter): 29.97 inches Hg (1015.0 mb)
Winds: from the WSW (250 degrees) at 5 MPH (4 knots; 2.1 m/s)
Visibility: 6 or more miles (10+ km)
Ceiling: ceiling and visibility are OK
Clouds: unknown
Weather: no significant weather observed at this time

METAR text: EVRA 240150Z 24004KT 210V270 CAVOK 02/M01 Q1015 R18/190095 NOSIG
Conditions at: EVRA (RIGA AIRPORT , LV) observed 0150 UTC 24 March 2019
Temperature: 2.0°C (36°F)
Dewpoint: -1.0°C (30°F) [RH = 80%]
Pressure (altimeter): 29.97 inches Hg (1015.0 mb)
Winds: from the WSW (240 degrees) at 5 MPH (4 knots; 2.1 m/s)
Visibility: 6 or more miles (10+ km)
Ceiling: ceiling and visibility are OK
Clouds: unknown
Weather: no significant weather observed at this time

METAR text: EVRA 240120Z 22005KT CAVOK 02/M01 Q1015 R18/190095 NOSIG
Conditions at: EVRA (RIGA AIRPORT , LV) observed 0120 UTC 24 March 2019
Temperature: 2.0°C (36°F)
Dewpoint: -1.0°C (30°F) [RH = 80%]
Pressure (altimeter): 29.97 inches Hg (1015.0 mb)
Winds: from the SW (220 degrees) at 6 MPH (5 knots; 2.6 m/s)
Visibility: 6 or more miles (10+ km)
Ceiling: ceiling and visibility are OK
Clouds: unknown
Weather: no significant weather observed at this time

METAR text: EVRA 240050Z 23004KT 200V270 CAVOK 03/M00 Q1015 R18/190095 NOSIG
Conditions at: EVRA (RIGA AIRPORT , LV) observed 0050 UTC 24 March 2019
Temperature: 3.0°C (37°F)
Dewpoint: 0.0°C (32°F) [RH = 81%]
Pressure (altimeter): 29.97 inches Hg (1015.0 mb)
Winds: from the SW (230 degrees) at 5 MPH (4 knots; 2.1 m/s)
Visibility: 6 or more miles (10+ km)
Ceiling: ceiling and visibility are OK
Clouds: unknown
Weather: no significant weather observed at this time

METAR text: EVRA 240020Z 24004KT 210V280 CAVOK 03/00 Q1015 R18/190095 NOSIG
Conditions at: EVRA (RIGA AIRPORT , LV) observed 0020 UTC 24 March 2019
Temperature: 3.0°C (37°F)
Dewpoint: 0.0°C (32°F) [RH = 81%]
Pressure (altimeter): 29.97 inches Hg (1015.0 mb)
Winds: from the WSW (240 degrees) at 5 MPH (4 knots; 2.1 m/s)
Visibility: 6 or more miles (10+ km)
Ceiling: ceiling and visibility are OK
Clouds: unknown
Weather: no significant weather observed at this time

METAR text: EVRA 232350Z 25005KT 210V310 CAVOK 04/01 Q1015 R18/190095 NOSIG
Conditions at: EVRA (RIGA AIRPORT , LV) observed 2350 UTC 23 March 2019
Temperature: 4.0°C (39°F)
Dewpoint: 1.0°C (34°F) [RH = 81%]
Pressure (altimeter): 29.97 inches Hg (1015.0 mb)
Winds: from the WSW (250 degrees) at 6 MPH (5 knots; 2.6 m/s)
Visibility: 6 or more miles (10+ km)
Ceiling: ceiling and visibility are OK
Clouds: unknown
Weather: no significant weather observed at this time

METAR text: EVRA 232320Z 25005KT 200V300 CAVOK 04/01 Q1015 R18/190095 NOSIG
Conditions at: EVRA (RIGA AIRPORT , LV) observed 2320 UTC 23 March 2019
Temperature: 4.0°C (39°F)
Dewpoint: 1.0°C (34°F) [RH = 81%]
Pressure (altimeter): 29.97 inches Hg (1015.0 mb)
Winds: from the WSW (250 degrees) at 6 MPH (5 knots; 2.6 m/s)
Visibility: 6 or more miles (10+ km)
Ceiling: ceiling and visibility are OK
Clouds: unknown
Weather: no significant weather observed at this time

METAR text: EVRA 232250Z 25005KT 200V300 CAVOK 04/02 Q1015 R18/190095 NOSIG
Conditions at: EVRA (RIGA AIRPORT , LV) observed 2250 UTC 23 March 2019
Temperature: 4.0°C (39°F)
Dewpoint: 2.0°C (36°F) [RH = 87%]
Pressure (altimeter): 29.97 inches Hg (1015.0 mb)
Winds: from the WSW (250 degrees) at 6 MPH (5 knots; 2.6 m/s)
Visibility: 6 or more miles (10+ km)
Ceiling: ceiling and visibility are OK
Clouds: unknown
Weather: no significant weather observed at this time

METAR text: EVRA 232220Z 25006KT 210V290 CAVOK 05/03 Q1015 R18/190095 NOSIG
Conditions at: EVRA (RIGA AIRPORT , LV) observed 2220 UTC 23 March 2019
Temperature: 5.0°C (41°F)
Dewpoint: 3.0°C (37°F) [RH = 87%]
Pressure (altimeter): 29.97 inches Hg (1015.0 mb)
Winds: from the WSW (250 degrees) at 7 MPH (6 knots; 3.1 m/s)
Visibility: 6 or more miles (10+ km)
Ceiling: ceiling and visibility are OK
Clouds: unknown
Weather: no significant weather observed at this time

METAR text: EVRA 232150Z 24005KT 220V280 CAVOK 05/03 Q1015 R18/190095 NOSIG
Conditions at: EVRA (RIGA AIRPORT , LV) observed 2150 UTC 23 March 2019
Temperature: 5.0°C (41°F)
Dewpoint: 3.0°C (37°F) [RH = 87%]
Pressure (altimeter): 29.97 inches Hg (1015.0 mb)
Winds: from the WSW (240 degrees) at 6 MPH (5 knots; 2.6 m/s)
Visibility: 6 or more miles (10+ km)
Ceiling: ceiling and visibility are OK
Clouds: unknown
Weather: no significant weather observed at this time

METAR text: EVRA 232120Z 24005KT 210V270 CAVOK 05/04 Q1015 R18/290195 NOSIG
Conditions at: EVRA (RIGA AIRPORT , LV) observed 2120 UTC 23 March 2019
Temperature: 5.0°C (41°F)
Dewpoint: 4.0°C (39°F) [RH = 93%]
Pressure (altimeter): 29.97 inches Hg (1015.0 mb)
Winds: from the WSW (240 degrees) at 6 MPH (5 knots; 2.6 m/s)
Visibility: 6 or more miles (10+ km)
Ceiling: ceiling and visibility are OK
Clouds: unknown
Weather: no significant weather observed at this time

METAR text: EVRA 232050Z 24005KT 210V270 9999 FEW013 06/04 Q1016 R18/290195 NOSIG
Conditions at: EVRA (RIGA AIRPORT , LV) observed 2050 UTC 23 March 2019
Temperature: 6.0°C (43°F)
Dewpoint: 4.0°C (39°F) [RH = 87%]
Pressure (altimeter): 30.00 inches Hg (1016.0 mb)
Winds: from the WSW (240 degrees) at 6 MPH (5 knots; 2.6 m/s)
Visibility: 6 or more miles (10+ km)
Ceiling: at least 12,000 feet AGL
Clouds: few clouds at 1300 feet AGL
Weather: no significant weather observed at this time

METAR text: EVRA 232020Z 25006KT 190V290 9999 FEW013 06/04 Q1016 R18/290195 NOSIG
Conditions at: EVRA (RIGA AIRPORT , LV) observed 2020 UTC 23 March 2019
Temperature: 6.0°C (43°F)
Dewpoint: 4.0°C (39°F) [RH = 87%]
Pressure (altimeter): 30.00 inches Hg (1016.0 mb)
Winds: from the WSW (250 degrees) at 7 MPH (6 knots; 3.1 m/s)
Visibility: 6 or more miles (10+ km)
Ceiling: at least 12,000 feet AGL
Clouds: few clouds at 1300 feet AGL
Weather: no significant weather observed at this time

METAR text: EVRA 231950Z 26006KT 220V310 9999 OVC012 07/05 Q1016 R18/290195 NOSIG
Conditions at: EVRA (RIGA AIRPORT , LV) observed 1950 UTC 23 March 2019
Temperature: 7.0°C (45°F)
Dewpoint: 5.0°C (41°F) [RH = 87%]
Pressure (altimeter): 30.00 inches Hg (1016.0 mb)
Winds: from the W (260 degrees) at 7 MPH (6 knots; 3.1 m/s)
Visibility: 6 or more miles (10+ km)
Ceiling: 1200 feet AGL
Clouds: overcast cloud deck at 1200 feet AGL
Weather: no significant weather observed at this time

METAR text: EVRA 231920Z 25006KT 210V320 9999 BKN010 07/05 Q1016 R18/290195 NOSIG
Conditions at: EVRA (RIGA AIRPORT , LV) observed 1920 UTC 23 March 2019
Temperature: 7.0°C (45°F)
Dewpoint: 5.0°C (41°F) [RH = 87%]
Pressure (altimeter): 30.00 inches Hg (1016.0 mb)
Winds: from the WSW (250 degrees) at 7 MPH (6 knots; 3.1 m/s)
Visibility: 6 or more miles (10+ km)
Ceiling: 1000 feet AGL
Clouds: broken clouds at 1000 feet AGL
Weather: no significant weather observed at this time

METAR text: EVRA 231850Z 25006KT 210V290 9999 OVC010 07/06 Q1016 R18/290195 NOSIG
Conditions at: EVRA (RIGA AIRPORT , LV) observed 1850 UTC 23 March 2019
Temperature: 7.0°C (45°F)
Dewpoint: 6.0°C (43°F) [RH = 93%]
Pressure (altimeter): 30.00 inches Hg (1016.0 mb)
Winds: from the WSW (250 degrees) at 7 MPH (6 knots; 3.1 m/s)
Visibility: 6 or more miles (10+ km)
Ceiling: 1000 feet AGL
Clouds: overcast cloud deck at 1000 feet AGL
Weather: no significant weather observed at this time

METAR text: EVRA 231820Z 24007KT 180V280 9999 OVC010 07/06 Q1016 R18/290195 NOSIG
Conditions at: EVRA (RIGA AIRPORT , LV) observed 1820 UTC 23 March 2019
Temperature: 7.0°C (45°F)
Dewpoint: 6.0°C (43°F) [RH = 93%]
Pressure (altimeter): 30.00 inches Hg (1016.0 mb)
Winds: from the WSW (240 degrees) at 8 MPH (7 knots; 3.6 m/s)
Visibility: 6 or more miles (10+ km)
Ceiling: 1000 feet AGL
Clouds: overcast cloud deck at 1000 feet AGL
Weather: no significant weather observed at this time

METAR text: EVRA 231750Z 24008KT 210V270 9999 OVC010 07/05 Q1016 R18/290195 NOSIG
Conditions at: EVRA (RIGA AIRPORT , LV) observed 1750 UTC 23 March 2019
Temperature: 7.0°C (45°F)
Dewpoint: 5.0°C (41°F) [RH = 87%]
Pressure (altimeter): 30.00 inches Hg (1016.0 mb)
Winds: from the WSW (240 degrees) at 9 MPH (8 knots; 4.1 m/s)
Visibility: 6 or more miles (10+ km)
Ceiling: 1000 feet AGL
Clouds: overcast cloud deck at 1000 feet AGL
Weather: no significant weather observed at this time

METAR text: EVRA 231720Z 24008KT 200V280 9999 -RA OVC011 07/05 Q1016 R18/290195 NOSIG
Conditions at: EVRA (RIGA AIRPORT , LV) observed 1720 UTC 23 March 2019
Temperature: 7.0°C (45°F)
Dewpoint: 5.0°C (41°F) [RH = 87%]
Pressure (altimeter): 30.00 inches Hg (1016.0 mb)
Winds: from the WSW (240 degrees) at 9 MPH (8 knots; 4.1 m/s)
Visibility: 6 or more miles (10+ km)
Ceiling: 1100 feet AGL
Clouds: overcast cloud deck at 1100 feet AGL
Weather: -RA  (light rain)

METAR text: EVRA 231650Z 23009KT 200V260 9999 OVC013 08/05 Q1016 R18/190095 NOSIG
Conditions at: EVRA (RIGA AIRPORT , LV) observed 1650 UTC 23 March 2019
Temperature: 8.0°C (46°F)
Dewpoint: 5.0°C (41°F) [RH = 81%]
Pressure (altimeter): 30.00 inches Hg (1016.0 mb)
Winds: from the SW (230 degrees) at 10 MPH (9 knots; 4.6 m/s)
Visibility: 6 or more miles (10+ km)
Ceiling: 1300 feet AGL
Clouds: overcast cloud deck at 1300 feet AGL
Weather: no significant weather observed at this time

METAR text: EVRA 231620Z 22010KT 9999 OVC016 08/05 Q1016 R18/190095 NOSIG
Conditions at: EVRA (RIGA AIRPORT , LV) observed 1620 UTC 23 March 2019
Temperature: 8.0°C (46°F)
Dewpoint: 5.0°C (41°F) [RH = 81%]
Pressure (altimeter): 30.00 inches Hg (1016.0 mb)
Winds: from the SW (220 degrees) at 12 MPH (10 knots; 5.1 m/s)
Visibility: 6 or more miles (10+ km)
Ceiling: 1600 feet AGL
Clouds: overcast cloud deck at 1600 feet AGL
Weather: no significant weather observed at this time

METAR text: EVRA 231550Z 21010KT 9999 OVC018 08/04 Q1017 R18/190095 NOSIG
Conditions at: EVRA (RIGA AIRPORT , LV) observed 1550 UTC 23 March 2019
Temperature: 8.0°C (46°F)
Dewpoint: 4.0°C (39°F) [RH = 76%]
Pressure (altimeter): 30.03 inches Hg (1017.0 mb)
Winds: from the SSW (210 degrees) at 12 MPH (10 knots; 5.1 m/s)
Visibility: 6 or more miles (10+ km)
Ceiling: 1800 feet AGL
Clouds: overcast cloud deck at 1800 feet AGL
Weather: no significant weather observed at this time

METAR text: EVRA 231520Z 22010KT 9999 OVC021 08/04 Q1017 R18/190095 NOSIG
Conditions at: EVRA (RIGA AIRPORT , LV) observed 1520 UTC 23 March 2019
Temperature: 8.0°C (46°F)
Dewpoint: 4.0°C (39°F) [RH = 76%]
Pressure (altimeter): 30.03 inches Hg (1017.0 mb)
Winds: from the SW (220 degrees) at 12 MPH (10 knots; 5.1 m/s)
Visibility: 6 or more miles (10+ km)
Ceiling: 2100 feet AGL
Clouds: overcast cloud deck at 2100 feet AGL
Weather: no significant weather observed at this time

METAR text: EVRA 231450Z 22013KT 9999 OVC021 09/04 Q1018 R18/190095 NOSIG
Conditions at: EVRA (RIGA AIRPORT , LV) observed 1450 UTC 23 March 2019
Temperature: 9.0°C (48°F)
Dewpoint: 4.0°C (39°F) [RH = 71%]
Pressure (altimeter): 30.06 inches Hg (1018.0 mb)
Winds: from the SW (220 degrees) at 15 MPH (13 knots; 6.7 m/s)
Visibility: 6 or more miles (10+ km)
Ceiling: 2100 feet AGL
Clouds: overcast cloud deck at 2100 feet AGL
Weather: no significant weather observed at this time

METAR text: EVRA 231420Z 21014KT 9999 OVC022 09/05 Q1018 R18/190095 NOSIG
Conditions at: EVRA (RIGA AIRPORT , LV) observed 1420 UTC 23 March 2019
Temperature: 9.0°C (48°F)
Dewpoint: 5.0°C (41°F) [RH = 76%]
Pressure (altimeter): 30.06 inches Hg (1018.0 mb)
Winds: from the SSW (210 degrees) at 16 MPH (14 knots; 7.2 m/s)
Visibility: 6 or more miles (10+ km)
Ceiling: 2200 feet AGL
Clouds: overcast cloud deck at 2200 feet AGL
Weather: no significant weather observed at this time

METAR text: EVRA 231350Z 21015KT 9999 OVC024 09/04 Q1018 R18/190095 NOSIG
Conditions at: EVRA (RIGA AIRPORT , LV) observed 1350 UTC 23 March 2019
Temperature: 9.0°C (48°F)
Dewpoint: 4.0°C (39°F) [RH = 71%]
Pressure (altimeter): 30.06 inches Hg (1018.0 mb)
Winds: from the SSW (210 degrees) at 17 MPH (15 knots; 7.7 m/s)
Visibility: 6 or more miles (10+ km)
Ceiling: 2400 feet AGL
Clouds: overcast cloud deck at 2400 feet AGL
Weather: no significant weather observed at this time

METAR text: EVRA 231320Z 22013KT 9999 OVC029 10/04 Q1019 R18/190095 NOSIG
Conditions at: EVRA (RIGA AIRPORT , LV) observed 1320 UTC 23 March 2019
Temperature: 10.0°C (50°F)
Dewpoint: 4.0°C (39°F) [RH = 66%]
Pressure (altimeter): 30.09 inches Hg (1019.0 mb)
Winds: from the SW (220 degrees) at 15 MPH (13 knots; 6.7 m/s)
Visibility: 6 or more miles (10+ km)
Ceiling: 2900 feet AGL
Clouds: overcast cloud deck at 2900 feet AGL
Weather: no significant weather observed at this time

METAR text: EVRA 231250Z 23015KT 9999 OVC035 11/04 Q1019 R18/190095 NOSIG
Conditions at: EVRA (RIGA AIRPORT , LV) observed 1250 UTC 23 March 2019
Temperature: 11.0°C (52°F)
Dewpoint: 4.0°C (39°F) [RH = 62%]
Pressure (altimeter): 30.09 inches Hg (1019.0 mb)
Winds: from the SW (230 degrees) at 17 MPH (15 knots; 7.7 m/s)
Visibility: 6 or more miles (10+ km)
Ceiling: 3500 feet AGL
Clouds: overcast cloud deck at 3500 feet AGL
Weather: no significant weather observed at this time

METAR text: EVRA 231220Z 23017KT 9999 BKN035 11/03 Q1019 R18/190095 NOSIG
Conditions at: EVRA (RIGA AIRPORT , LV) observed 1220 UTC 23 March 2019
Temperature: 11.0°C (52°F)
Dewpoint: 3.0°C (37°F) [RH = 58%]
Pressure (altimeter): 30.09 inches Hg (1019.0 mb)
Winds: from the SW (230 degrees) at 20 MPH (17 knots; 8.7 m/s)
Visibility: 6 or more miles (10+ km)
Ceiling: 3500 feet AGL
Clouds: broken clouds at 3500 feet AGL
Weather: no significant weather observed at this time

METAR text: EVRA 231150Z 21015KT 170V240 9999 FEW041 12/01 Q1020 R18/190095 NOSIG
Conditions at: EVRA (RIGA AIRPORT , LV) observed 1150 UTC 23 March 2019
Temperature: 12.0°C (54°F)
Dewpoint: 1.0°C (34°F) [RH = 47%]
Pressure (altimeter): 30.12 inches Hg (1020.0 mb)
Winds: from the SSW (210 degrees) at 17 MPH (15 knots; 7.7 m/s)
Visibility: 6 or more miles (10+ km)
Ceiling: at least 12,000 feet AGL
Clouds: few clouds at 4100 feet AGL
Weather: no significant weather observed at this time

METAR text: EVRA 231120Z 21014KT 180V240 9999 SCT033 11/M00 Q1020 R18/190095 NOSIG
Conditions at: EVRA (RIGA AIRPORT , LV) observed 1120 UTC 23 March 2019
Temperature: 11.0°C (52°F)
Dewpoint: 0.0°C (32°F) [RH = 47%]
Pressure (altimeter): 30.12 inches Hg (1020.0 mb)
Winds: from the SSW (210 degrees) at 16 MPH (14 knots; 7.2 m/s)
Visibility: 6 or more miles (10+ km)
Ceiling: at least 12,000 feet AGL
Clouds: scattered clouds at 3300 feet AGL
Weather: no significant weather observed at this time

METAR text: EVRA 231050Z 20015KT 9999 SCT033 11/M02 Q1021 R18/190095 NOSIG
Conditions at: EVRA (RIGA AIRPORT , LV) observed 1050 UTC 23 March 2019
Temperature: 11.0°C (52°F)
Dewpoint: -2.0°C (28°F) [RH = 40%]
Pressure (altimeter): 30.15 inches Hg (1021.0 mb)
Winds: from the SSW (200 degrees) at 17 MPH (15 knots; 7.7 m/s)
Visibility: 6 or more miles (10+ km)
Ceiling: at least 12,000 feet AGL
Clouds: scattered clouds at 3300 feet AGL
Weather: no significant weather observed at this time

METAR text: EVRA 231020Z 19015KT 9999 BKN035 10/M03 Q1021 R18/190095 NOSIG
Conditions at: EVRA (RIGA AIRPORT , LV) observed 1020 UTC 23 March 2019
Temperature: 10.0°C (50°F)
Dewpoint: -3.0°C (27°F) [RH = 40%]
Pressure (altimeter): 30.15 inches Hg (1021.0 mb)
Winds: from the S (190 degrees) at 17 MPH (15 knots; 7.7 m/s)
Visibility: 6 or more miles (10+ km)
Ceiling: 3500 feet AGL
Clouds: broken clouds at 3500 feet AGL
Weather: no significant weather observed at this time

METAR text: EVRA 230950Z 18015KT 9999 BKN035 09/M04 Q1022 R18/190095 NOSIG
Conditions at: EVRA (RIGA AIRPORT , LV) observed 0950 UTC 23 March 2019
Temperature: 9.0°C (48°F)
Dewpoint: -4.0°C (25°F) [RH = 40%]
Pressure (altimeter): 30.18 inches Hg (1022.0 mb)
Winds: from the S (180 degrees) at 17 MPH (15 knots; 7.7 m/s)
Visibility: 6 or more miles (10+ km)
Ceiling: 3500 feet AGL
Clouds: broken clouds at 3500 feet AGL
Weather: no significant weather observed at this time

METAR text: EVRA 230920Z 19012KT 9999 OVC039 07/M04 Q1023 R18/190095 NOSIG
Conditions at: EVRA (RIGA AIRPORT , LV) observed 0920 UTC 23 March 2019
Temperature: 7.0°C (45°F)
Dewpoint: -4.0°C (25°F) [RH = 45%]
Pressure (altimeter): 30.21 inches Hg (1023.0 mb)
Winds: from the S (190 degrees) at 14 MPH (12 knots; 6.2 m/s)
Visibility: 6 or more miles (10+ km)
Ceiling: 3900 feet AGL
Clouds: overcast cloud deck at 3900 feet AGL
Weather: no significant weather observed at this time

METAR text: EVRA 230850Z 18014KT 9999 OVC040 07/M04 Q1023 R18/190095 NOSIG
Conditions at: EVRA (RIGA AIRPORT , LV) observed 0850 UTC 23 March 2019
Temperature: 7.0°C (45°F)
Dewpoint: -4.0°C (25°F) [RH = 45%]
Pressure (altimeter): 30.21 inches Hg (1023.0 mb)
Winds: from the S (180 degrees) at 16 MPH (14 knots; 7.2 m/s)
Visibility: 6 or more miles (10+ km)
Ceiling: 4000 feet AGL
Clouds: overcast cloud deck at 4000 feet AGL
Weather: no significant weather observed at this time

METAR text: EVRA 230820Z 18012KT 9999 OVC037 06/M04 Q1024 R18/190095 NOSIG
Conditions at: EVRA (RIGA AIRPORT , LV) observed 0820 UTC 23 March 2019
Temperature: 6.0°C (43°F)
Dewpoint: -4.0°C (25°F) [RH = 49%]
Pressure (altimeter): 30.24 inches Hg (1024.0 mb)
Winds: from the S (180 degrees) at 14 MPH (12 knots; 6.2 m/s)
Visibility: 6 or more miles (10+ km)
Ceiling: 3700 feet AGL
Clouds: overcast cloud deck at 3700 feet AGL
Weather: no significant weather observed at this time

METAR text: EVRA 230750Z 19011KT 9999 BKN035 05/M05 Q1024 R18/190095 NOSIG
Conditions at: EVRA (RIGA AIRPORT , LV) observed 0750 UTC 23 March 2019
Temperature: 5.0°C (41°F)
Dewpoint: -5.0°C (23°F) [RH = 48%]
Pressure (altimeter): 30.24 inches Hg (1024.0 mb)
Winds: from the S (190 degrees) at 13 MPH (11 knots; 5.7 m/s)
Visibility: 6 or more miles (10+ km)
Ceiling: 3500 feet AGL
Clouds: broken clouds at 3500 feet AGL
Weather: no significant weather observed at this time

METAR text: EVRA 230720Z 19012KT 9999 SCT036 05/M04 Q1025 R18/190095 NOSIG
Conditions at: EVRA (RIGA AIRPORT , LV) observed 0720 UTC 23 March 2019
Temperature: 5.0°C (41°F)
Dewpoint: -4.0°C (25°F) [RH = 52%]
Pressure (altimeter): 30.27 inches Hg (1025.0 mb)
Winds: from the S (190 degrees) at 14 MPH (12 knots; 6.2 m/s)
Visibility: 6 or more miles (10+ km)
Ceiling: at least 12,000 feet AGL
Clouds: scattered clouds at 3600 feet AGL
Weather: no significant weather observed at this time

METAR text: EVRA 230650Z 19013KT CAVOK 03/M04 Q1025 R18/190095 NOSIG
Conditions at: EVRA (RIGA AIRPORT , LV) observed 0650 UTC 23 March 2019
Temperature: 3.0°C (37°F)
Dewpoint: -4.0°C (25°F) [RH = 60%]
Pressure (altimeter): 30.27 inches Hg (1025.0 mb)
Winds: from the S (190 degrees) at 15 MPH (13 knots; 6.7 m/s)
Visibility: 6 or more miles (10+ km)
Ceiling: ceiling and visibility are OK
Clouds: unknown
Weather: no significant weather observed at this time

METAR text: EVRA 230620Z 19012KT CAVOK 02/M05 Q1025 R18/190095 NOSIG
Conditions at: EVRA (RIGA AIRPORT , LV) observed 0620 UTC 23 March 2019
Temperature: 2.0°C (36°F)
Dewpoint: -5.0°C (23°F) [RH = 60%]
Pressure (altimeter): 30.27 inches Hg (1025.0 mb)
Winds: from the S (190 degrees) at 14 MPH (12 knots; 6.2 m/s)
Visibility: 6 or more miles (10+ km)
Ceiling: ceiling and visibility are OK
Clouds: unknown
Weather: no significant weather observed at this time

METAR text: EVRA 230550Z 19008KT CAVOK 00/M04 Q1026 R18/190095 NOSIG
Conditions at: EVRA (RIGA AIRPORT , LV) observed 0550 UTC 23 March 2019
Temperature: 0.0°C (32°F)
Dewpoint: -4.0°C (25°F) [RH = 74%]
Pressure (altimeter): 30.30 inches Hg (1026.0 mb)
Winds: from the S (190 degrees) at 9 MPH (8 knots; 4.1 m/s)
Visibility: 6 or more miles (10+ km)
Ceiling: ceiling and visibility are OK
Clouds: unknown
Weather: no significant weather observed at this time

METAR text: EVRA 230520Z 17008KT CAVOK M01/M04 Q1026 R18/190095 NOSIG
Conditions at: EVRA (RIGA AIRPORT , LV) observed 0520 UTC 23 March 2019
Temperature: -1.0°C (30°F)
Dewpoint: -4.0°C (25°F) [RH = 80%]
Pressure (altimeter): 30.30 inches Hg (1026.0 mb)
Winds: from the S (170 degrees) at 9 MPH (8 knots; 4.1 m/s)
Visibility: 6 or more miles (10+ km)
Ceiling: ceiling and visibility are OK
Clouds: unknown
Weather: no significant weather observed at this time

METAR text: EVRA 230450Z 18007KT CAVOK M02/M05 Q1027 R18/190095 NOSIG
Conditions at: EVRA (RIGA AIRPORT , LV) observed 0450 UTC 23 March 2019
Temperature: -2.0°C (28°F)
Dewpoint: -5.0°C (23°F) [RH = 80%]
Pressure (altimeter): 30.32 inches Hg (1027.0 mb)
Winds: from the S (180 degrees) at 8 MPH (7 knots; 3.6 m/s)
Visibility: 6 or more miles (10+ km)
Ceiling: ceiling and visibility are OK
Clouds: unknown
Weather: no significant weather observed at this time

METAR text: EVRA 230420Z 18007KT CAVOK M03/M05 Q1027 R18/190095 NOSIG
Conditions at: EVRA (RIGA AIRPORT , LV) observed 0420 UTC 23 March 2019
Temperature: -3.0°C (27°F)
Dewpoint: -5.0°C (23°F) [RH = 86%]
Pressure (altimeter): 30.32 inches Hg (1027.0 mb)
Winds: from the S (180 degrees) at 8 MPH (7 knots; 3.6 m/s)
Visibility: 6 or more miles (10+ km)
Ceiling: ceiling and visibility are OK
Clouds: unknown
Weather: no significant weather observed at this time

METAR text: EVRA 230350Z 18006KT CAVOK M03/M05 Q1027 R18/190095 NOSIG
Conditions at: EVRA (RIGA AIRPORT , LV) observed 0350 UTC 23 March 2019
Temperature: -3.0°C (27°F)
Dewpoint: -5.0°C (23°F) [RH = 86%]
Pressure (altimeter): 30.32 inches Hg (1027.0 mb)
Winds: from the S (180 degrees) at 7 MPH (6 knots; 3.1 m/s)
Visibility: 6 or more miles (10+ km)
Ceiling: ceiling and visibility are OK
Clouds: unknown
Weather: no significant weather observed at this time

METAR text: EVRA 230320Z 18006KT CAVOK M03/M05 Q1027 R18/190095 NOSIG
Conditions at: EVRA (RIGA AIRPORT , LV) observed 0320 UTC 23 March 2019
Temperature: -3.0°C (27°F)
Dewpoint: -5.0°C (23°F) [RH = 86%]
Pressure (altimeter): 30.32 inches Hg (1027.0 mb)
Winds: from the S (180 degrees) at 7 MPH (6 knots; 3.1 m/s)
Visibility: 6 or more miles (10+ km)
Ceiling: ceiling and visibility are OK
Clouds: unknown
Weather: no significant weather observed at this time

METAR text: EVRA 230250Z 19006KT CAVOK M03/M05 Q1027 R18/190095 NOSIG
Conditions at: EVRA (RIGA AIRPORT , LV) observed 0250 UTC 23 March 2019
Temperature: -3.0°C (27°F)
Dewpoint: -5.0°C (23°F) [RH = 86%]
Pressure (altimeter): 30.32 inches Hg (1027.0 mb)
Winds: from the S (190 degrees) at 7 MPH (6 knots; 3.1 m/s)
Visibility: 6 or more miles (10+ km)
Ceiling: ceiling and visibility are OK
Clouds: unknown
Weather: no significant weather observed at this time

METAR text: EVRA 230220Z 18006KT CAVOK M03/M05 Q1028 R18/190095 NOSIG
Conditions at: EVRA (RIGA AIRPORT , LV) observed 0220 UTC 23 March 2019
Temperature: -3.0°C (27°F)
Dewpoint: -5.0°C (23°F) [RH = 86%]
Pressure (altimeter): 30.35 inches Hg (1028.0 mb)
Winds: from the S (180 degrees) at 7 MPH (6 knots; 3.1 m/s)
Visibility: 6 or more miles (10+ km)
Ceiling: ceiling and visibility are OK
Clouds: unknown
Weather: no significant weather observed at this time

METAR text: EVRA 230150Z 16005KT CAVOK M03/M05 Q1028 R18/190095 NOSIG
Conditions at: EVRA (RIGA AIRPORT , LV) observed 0150 UTC 23 March 2019
Temperature: -3.0°C (27°F)
Dewpoint: -5.0°C (23°F) [RH = 86%]
Pressure (altimeter): 30.35 inches Hg (1028.0 mb)
Winds: from the SSE (160 degrees) at 6 MPH (5 knots; 2.6 m/s)
Visibility: 6 or more miles (10+ km)
Ceiling: ceiling and visibility are OK
Clouds: unknown
Weather: no significant weather observed at this time

METAR text: EVRA 230120Z 19004KT CAVOK M04/M05 Q1028 R18/190095 NOSIG
Conditions at: EVRA (RIGA AIRPORT , LV) observed 0120 UTC 23 March 2019
Temperature: -4.0°C (25°F)
Dewpoint: -5.0°C (23°F) [RH = 93%]
Pressure (altimeter): 30.35 inches Hg (1028.0 mb)
Winds: from the S (190 degrees) at 5 MPH (4 knots; 2.1 m/s)
Visibility: 6 or more miles (10+ km)
Ceiling: ceiling and visibility are OK
Clouds: unknown
Weather: no significant weather observed at this time

METAR text: EVRA 230050Z 20003KT CAVOK M03/M05 Q1029 R36/190095 NOSIG
Conditions at: EVRA (RIGA AIRPORT , LV) observed 0050 UTC 23 March 2019
Temperature: -3.0°C (27°F)
Dewpoint: -5.0°C (23°F) [RH = 86%]
Pressure (altimeter): 30.38 inches Hg (1029.0 mb)
Winds: from the SSW (200 degrees) at 3 MPH (3 knots; 1.5 m/s)
Visibility: 6 or more miles (10+ km)
Ceiling: ceiling and visibility are OK
Clouds: unknown
Weather: no significant weather observed at this time

METAR text: EVRA 230020Z 23003KT CAVOK M03/M04 Q1029 R36/190095 NOSIG
Conditions at: EVRA (RIGA AIRPORT , LV) observed 0020 UTC 23 March 2019
Temperature: -3.0°C (27°F)
Dewpoint: -4.0°C (25°F) [RH = 93%]
Pressure (altimeter): 30.38 inches Hg (1029.0 mb)
Winds: from the SW (230 degrees) at 3 MPH (3 knots; 1.5 m/s)
Visibility: 6 or more miles (10+ km)
Ceiling: ceiling and visibility are OK
Clouds: unknown
Weather: no significant weather observed at this time

METAR text: EVRA 222350Z 20003KT CAVOK M03/M04 Q1029 R36/190095 NOSIG
Conditions at: EVRA (RIGA AIRPORT , LV) observed 2350 UTC 22 March 2019
Temperature: -3.0°C (27°F)
Dewpoint: -4.0°C (25°F) [RH = 93%]
Pressure (altimeter): 30.38 inches Hg (1029.0 mb)
Winds: from the SSW (200 degrees) at 3 MPH (3 knots; 1.5 m/s)
Visibility: 6 or more miles (10+ km)
Ceiling: ceiling and visibility are OK
Clouds: unknown
Weather: no significant weather observed at this time

METAR text: EVRA 222320Z 17004KT CAVOK M02/M04 Q1029 R36/190095 NOSIG
Conditions at: EVRA (RIGA AIRPORT , LV) observed 2320 UTC 22 March 2019
Temperature: -2.0°C (28°F)
Dewpoint: -4.0°C (25°F) [RH = 86%]
Pressure (altimeter): 30.38 inches Hg (1029.0 mb)
Winds: from the S (170 degrees) at 5 MPH (4 knots; 2.1 m/s)
Visibility: 6 or more miles (10+ km)
Ceiling: ceiling and visibility are OK
Clouds: unknown
Weather: no significant weather observed at this time

METAR text: EVRA 222250Z VRB02KT CAVOK M02/M04 Q1030 R36/190095 NOSIG
Conditions at: EVRA (RIGA AIRPORT , LV) observed 2250 UTC 22 March 2019
Temperature: -2.0°C (28°F)
Dewpoint: -4.0°C (25°F) [RH = 86%]
Pressure (altimeter): 30.41 inches Hg (1030.0 mb)
Winds: variable direction winds at 2 MPH (2 knots; 1.0 m/s)
Visibility: 6 or more miles (10+ km)
Ceiling: ceiling and visibility are OK
Clouds: unknown
Weather: no significant weather observed at this time

METAR text: EVRA 222220Z 00000KT CAVOK M01/M04 Q1030 R36/190095 NOSIG
Conditions at: EVRA (RIGA AIRPORT , LV) observed 2220 UTC 22 March 2019
Temperature: -1.0°C (30°F)
Dewpoint: -4.0°C (25°F) [RH = 80%]
Pressure (altimeter): 30.41 inches Hg (1030.0 mb)
Winds: calm
Visibility: 6 or more miles (10+ km)
Ceiling: ceiling and visibility are OK
Clouds: unknown
Weather: no significant weather observed at this time

METAR text: EVRA 222150Z VRB02KT CAVOK M00/M03 Q1030 R36/190095 NOSIG
Conditions at: EVRA (RIGA AIRPORT , LV) observed 2150 UTC 22 March 2019
Temperature: 0.0°C (32°F)
Dewpoint: -3.0°C (27°F) [RH = 80%]
Pressure (altimeter): 30.41 inches Hg (1030.0 mb)
Winds: variable direction winds at 2 MPH (2 knots; 1.0 m/s)
Visibility: 6 or more miles (10+ km)
Ceiling: ceiling and visibility are OK
Clouds: unknown
Weather: no significant weather observed at this time

METAR text: EVRA 222120Z 30003KT 250V340 CAVOK M00/M04 Q1030 R36/190095 NOSIG
Conditions at: EVRA (RIGA AIRPORT , LV) observed 2120 UTC 22 March 2019
Temperature: 0.0°C (32°F)
Dewpoint: -4.0°C (25°F) [RH = 74%]
Pressure (altimeter): 30.41 inches Hg (1030.0 mb)
Winds: from the WNW (300 degrees) at 3 MPH (3 knots; 1.5 m/s)
Visibility: 6 or more miles (10+ km)
Ceiling: ceiling and visibility are OK
Clouds: unknown
Weather: no significant weather observed at this time

METAR text: EVRA 222050Z VRB01KT CAVOK 01/M04 Q1030 R36/190095 NOSIG
Conditions at: EVRA (RIGA AIRPORT , LV) observed 2050 UTC 22 March 2019
Temperature: 1.0°C (34°F)
Dewpoint: -4.0°C (25°F) [RH = 69%]
Pressure (altimeter): 30.41 inches Hg (1030.0 mb)
Winds: variable direction winds at 1 MPH (1 knots; 0.5 m/s)
Visibility: 6 or more miles (10+ km)
Ceiling: ceiling and visibility are OK
Clouds: unknown
Weather: no significant weather observed at this time

Forecast for: EVRA (RIGA AIRPORT , LV)
Text: TAF EVRA 240800Z 2409/2509 27009KT CAVOK
Forecast period: 0900 UTC 24 March 2019 to 0900 UTC 25 March 2019
Forecast type: FROM: standard forecast or significant change
Winds: from the W (270 degrees) at 10 MPH (9 knots; 4.6 m/s)
Visibility: 6 or more miles 10+ km)
Ceiling: unknown
Clouds: missing
Weather: NSW  (no significant weather)
Text: TEMPO 2409/2415 27015G27KT
Forecast period: 0900 to 1500 UTC 24 March 2019
Forecast type: TEMPORARY: The following changes expected for less than half the time period
Winds: from the W (270 degrees) at 17 MPH (15 knots; 7.7 m/s)
gusting to 31 MPH (27 knots; 13.9 m/s)
Visibility: missing
Ceiling: unknown
Clouds: missing
Weather: no significant weather forecast for this period
Text: TEMPO 2500/2506 0700 FG BKN001
Forecast period: 0000 to 0600 UTC 25 March 2019
Forecast type: TEMPORARY: The following changes expected for less than half the time period
Visibility: 0.43 miles (0.69 km)
Ceiling: 100 feet AGL
Clouds: broken clouds at 100 feet AGL
Weather: FG  (fog)